This is the latest recevied weather packets stored in our database for station/object KD0SBN. If no packets are shown the sender has not sent any weather packets the latest 10 day(s).
| Time | Temp. | Humidity | Pressure | Rain* | Wind** | Luminosity | Snow |
|---|---|---|---|---|---|---|---|
| 1777926449 | 26.11° C | 25% | 1006 hPa | 0 mm | - | - | - |
| 1777926147 | 25.56° C | 23% | 1006.3 hPa | 0 mm | - | - | - |
| 1777925844 | 25.56° C | 23% | 1006.4 hPa | 0 mm | - | - | - |
| 1777925541 | 25.56° C | 24% | 1006.3 hPa | 0 mm | - | - | - |
| 1777925239 | 25.56° C | 25% | 1006.4 hPa | 0 mm | - | - | - |
| 1777924934 | 25.56° C | 24% | 1006.2 hPa | 0 mm | - | - | - |
| 1777924631 | 26.11° C | 22% | 1006.2 hPa | 0 mm | - | - | - |
| 1777924327 | 26.11° C | 21% | 1006.3 hPa | 0 mm | - | - | - |
| 1777924024 | 26.11° C | 21% | 1006.2 hPa | 0 mm | - | - | - |
| 1777923720 | 26.67° C | 21% | 1006.3 hPa | 0 mm | - | - | - |
| 1777923417 | 26.67° C | 20% | 1006.3 hPa | 0 mm | - | - | - |
| 1777923114 | 26.11° C | 21% | 1006.3 hPa | 0 mm | - | - | - |
| 1777922812 | 25.56° C | 21% | 1006.5 hPa | 0 mm | - | - | - |
| 1777922510 | 24.44° C | 21% | 1006.4 hPa | 0 mm | - | - | - |
| 1777922208 | 25.56° C | 21% | 1006.6 hPa | 0 mm | - | - | - |
| 1777921904 | 25.56° C | 22% | 1006.6 hPa | 0 mm | - | - | - |
| 1777921600 | 26.11° C | 21% | 1006.4 hPa | 0 mm | - | - | - |
| 1777921297 | 26.67° C | 19% | 1006.7 hPa | 0 mm | - | - | - |
| 1777920993 | 25.56° C | 20% | 1006.6 hPa | 0 mm | - | - | - |
| 1777920690 | 26.67° C | 19% | 1007.2 hPa | 0 mm | - | - | - |
| 1777920386 | 25.56° C | 20% | 1006.7 hPa | 0 mm | - | - | - |
| 1777920081 | 25° C | 20% | 1007 hPa | 0 mm | - | - | - |
| 1777919779 | 26.11° C | 21% | 1007.2 hPa | 0 mm | - | - | - |
| 1777919476 | 26.67° C | 21% | 1007.2 hPa | 0 mm | - | - | - |
| 1777919174 | 24.44° C | 23% | 1006.9 hPa | 0 mm | - | - | - |
* Rain latest hour (hover to see other rain measurements)
** Current wind speed in m/s (hover to see current wind gust speed)